sensor_id;sensor_type;location;lat;lon;timestamp;P1;durP1;ratioP1;P2;durP2;ratioP2
677;SDS011;321;48.814;9.132;2022-09-02T00:01:21;5.20;;;2.47;;
677;SDS011;321;48.814;9.132;2022-09-02T00:03:49;10.30;;;2.83;;
677;SDS011;321;48.814;9.132;2022-09-02T00:06:17;2.77;;;2.43;;
677;SDS011;321;48.814;9.132;2022-09-02T00:08:43;3.03;;;2.37;;
677;SDS011;321;48.814;9.132;2022-09-02T00:11:13;2.47;;;2.27;;
677;SDS011;321;48.814;9.132;2022-09-02T00:13:41;2.23;;;2.03;;
677;SDS011;321;48.814;9.132;2022-09-02T00:16:07;2.70;;;2.50;;
677;SDS011;321;48.814;9.132;2022-09-02T00:18:34;2.50;;;2.30;;
677;SDS011;321;48.814;9.132;2022-09-02T00:21:00;2.70;;;2.43;;
677;SDS011;321;48.814;9.132;2022-09-02T00:23:25;3.13;;;2.30;;
677;SDS011;321;48.814;9.132;2022-09-02T00:25:51;3.27;;;2.20;;
677;SDS011;321;48.814;9.132;2022-09-02T00:28:17;5.80;;;2.83;;
677;SDS011;321;48.814;9.132;2022-09-02T00:30:43;3.20;;;2.50;;
677;SDS011;321;48.814;9.132;2022-09-02T00:33:09;2.43;;;2.13;;
677;SDS011;321;48.814;9.132;2022-09-02T00:35:38;2.33;;;2.13;;
677;SDS011;321;48.814;9.132;2022-09-02T00:38:04;2.20;;;2.00;;
677;SDS011;321;48.814;9.132;2022-09-02T00:40:31;3.83;;;2.60;;
677;SDS011;321;48.814;9.132;2022-09-02T00:42:58;2.30;;;2.10;;
677;SDS011;321;48.814;9.132;2022-09-02T00:45:24;1.73;;;1.63;;
677;SDS011;321;48.814;9.132;2022-09-02T00:47:50;3.67;;;2.70;;
677;SDS011;321;48.814;9.132;2022-09-02T00:50:17;4.70;;;3.40;;
677;SDS011;321;48.814;9.132;2022-09-02T00:52:50;2.60;;;2.40;;
677;SDS011;321;48.814;9.132;2022-09-02T00:55:20;3.00;;;2.40;;
677;SDS011;321;48.814;9.132;2022-09-02T00:57:53;3.10;;;2.70;;
677;SDS011;321;48.814;9.132;2022-09-02T01:00:24;3.50;;;2.97;;
677;SDS011;321;48.814;9.132;2022-09-02T01:02:56;2.40;;;2.20;;
677;SDS011;321;48.814;9.132;2022-09-02T01:05:25;2.97;;;2.67;;
677;SDS011;321;48.814;9.132;2022-09-02T01:07:54;2.20;;;2.00;;
677;SDS011;321;48.814;9.132;2022-09-02T01:10:21;3.00;;;2.03;;
677;SDS011;321;48.814;9.132;2022-09-02T01:12:53;3.37;;;2.30;;
677;SDS011;321;48.814;9.132;2022-09-02T01:15:24;3.27;;;2.97;;
677;SDS011;321;48.814;9.132;2022-09-02T01:17:51;2.40;;;2.20;;
677;SDS011;321;48.814;9.132;2022-09-02T01:20:19;2.77;;;2.57;;
677;SDS011;321;48.814;9.132;2022-09-02T01:22:47;2.80;;;2.60;;
677;SDS011;321;48.814;9.132;2022-09-02T01:25:15;4.40;;;3.07;;
677;SDS011;321;48.814;9.132;2022-09-02T01:27:46;2.97;;;2.67;;
677;SDS011;321;48.814;9.132;2022-09-02T01:30:15;2.57;;;2.30;;
677;SDS011;321;48.814;9.132;2022-09-02T01:32:43;2.70;;;2.50;;
677;SDS011;321;48.814;9.132;2022-09-02T01:35:09;3.20;;;2.90;;
677;SDS011;321;48.814;9.132;2022-09-02T01:37:36;3.40;;;2.90;;
677;SDS011;321;48.814;9.132;2022-09-02T01:40:04;2.63;;;2.07;;
677;SDS011;321;48.814;9.132;2022-09-02T01:42:32;2.47;;;2.00;;
677;SDS011;321;48.814;9.132;2022-09-02T01:44:57;2.23;;;2.03;;
677;SDS011;321;48.814;9.132;2022-09-02T01:47:25;2.70;;;2.30;;
677;SDS011;321;48.814;9.132;2022-09-02T01:49:51;3.10;;;2.33;;
677;SDS011;321;48.814;9.132;2022-09-02T01:52:19;3.80;;;2.20;;
677;SDS011;321;48.814;9.132;2022-09-02T01:54:45;4.30;;;2.73;;
677;SDS011;321;48.814;9.132;2022-09-02T01:57:11;2.50;;;2.30;;
677;SDS011;321;48.814;9.132;2022-09-02T01:59:37;3.03;;;2.50;;
677;SDS011;321;48.814;9.132;2022-09-02T02:02:03;3.40;;;3.10;;
677;SDS011;321;48.814;9.132;2022-09-02T02:04:30;3.30;;;2.40;;
677;SDS011;321;48.814;9.132;2022-09-02T02:06:56;2.27;;;2.07;;
677;SDS011;321;48.814;9.132;2022-09-02T02:09:23;2.77;;;2.10;;
677;SDS011;321;48.814;9.132;2022-09-02T02:11:48;8.00;;;2.97;;
677;SDS011;321;48.814;9.132;2022-09-02T02:14:15;2.57;;;1.73;;
677;SDS011;321;48.814;9.132;2022-09-02T02:16:41;2.13;;;1.93;;
677;SDS011;321;48.814;9.132;2022-09-02T02:19:07;2.87;;;2.20;;
677;SDS011;321;48.814;9.132;2022-09-02T02:21:33;2.63;;;2.27;;
677;SDS011;321;48.814;9.132;2022-09-02T02:23:58;2.73;;;2.53;;
677;SDS011;321;48.814;9.132;2022-09-02T02:26:25;2.63;;;2.30;;
677;SDS011;321;48.814;9.132;2022-09-02T02:28:52;2.07;;;1.87;;
677;SDS011;321;48.814;9.132;2022-09-02T02:31:18;7.17;;;3.00;;
677;SDS011;321;48.814;9.132;2022-09-02T02:33:44;2.83;;;2.63;;
677;SDS011;321;48.814;9.132;2022-09-02T02:36:11;3.40;;;2.63;;
677;SDS011;321;48.814;9.132;2022-09-02T02:38:37;2.40;;;1.90;;
677;SDS011;321;48.814;9.132;2022-09-02T02:41:04;2.63;;;1.80;;
677;SDS011;321;48.814;9.132;2022-09-02T02:43:31;3.00;;;2.80;;
677;SDS011;321;48.814;9.132;2022-09-02T02:45:58;2.60;;;2.40;;
677;SDS011;321;48.814;9.132;2022-09-02T02:48:24;3.00;;;2.50;;
677;SDS011;321;48.814;9.132;2022-09-02T02:50:50;2.37;;;1.90;;
677;SDS011;321;48.814;9.132;2022-09-02T02:53:16;2.57;;;2.23;;
677;SDS011;321;48.814;9.132;2022-09-02T02:55:42;2.30;;;2.10;;
677;SDS011;321;48.814;9.132;2022-09-02T02:58:08;2.70;;;2.50;;
677;SDS011;321;48.814;9.132;2022-09-02T03:00:34;2.57;;;2.37;;
677;SDS011;321;48.814;9.132;2022-09-02T03:03:09;2.97;;;2.17;;
677;SDS011;321;48.814;9.132;2022-09-02T03:05:36;6.10;;;2.37;;
677;SDS011;321;48.814;9.132;2022-09-02T03:08:03;1.87;;;1.73;;
677;SDS011;321;48.814;9.132;2022-09-02T03:10:30;3.13;;;2.30;;
677;SDS011;321;48.814;9.132;2022-09-02T03:12:57;2.40;;;2.20;;
677;SDS011;321;48.814;9.132;2022-09-02T03:15:23;6.50;;;2.60;;
677;SDS011;321;48.814;9.132;2022-09-02T03:17:49;3.70;;;2.53;;
677;SDS011;321;48.814;9.132;2022-09-02T03:20:15;2.63;;;2.30;;
677;SDS011;321;48.814;9.132;2022-09-02T03:22:42;5.43;;;2.80;;
677;SDS011;321;48.814;9.132;2022-09-02T03:25:10;2.20;;;1.93;;
677;SDS011;321;48.814;9.132;2022-09-02T03:27:38;3.20;;;2.93;;
677;SDS011;321;48.814;9.132;2022-09-02T03:30:07;2.10;;;1.90;;
677;SDS011;321;48.814;9.132;2022-09-02T03:32:35;4.17;;;2.27;;
677;SDS011;321;48.814;9.132;2022-09-02T03:35:02;2.00;;;1.80;;
677;SDS011;321;48.814;9.132;2022-09-02T03:37:31;4.10;;;2.40;;
677;SDS011;321;48.814;9.132;2022-09-02T03:39:57;2.00;;;1.80;;
677;SDS011;321;48.814;9.132;2022-09-02T03:42:25;2.40;;;2.03;;
677;SDS011;321;48.814;9.132;2022-09-02T03:44:50;2.60;;;2.40;;
677;SDS011;321;48.814;9.132;2022-09-02T03:47:17;2.57;;;2.37;;
677;SDS011;321;48.814;9.132;2022-09-02T03:49:44;2.23;;;2.03;;
677;SDS011;321;48.814;9.132;2022-09-02T03:52:09;2.53;;;2.10;;
677;SDS011;321;48.814;9.132;2022-09-02T03:54:35;1.83;;;1.70;;
677;SDS011;321;48.814;9.132;2022-09-02T03:57:00;2.17;;;1.90;;
677;SDS011;321;48.814;9.132;2022-09-02T03:59:26;3.00;;;2.80;;
677;SDS011;321;48.814;9.132;2022-09-02T04:01:51;2.13;;;1.90;;
677;SDS011;321;48.814;9.132;2022-09-02T04:04:17;5.00;;;2.33;;
677;SDS011;321;48.814;9.132;2022-09-02T04:06:43;2.63;;;2.17;;
677;SDS011;321;48.814;9.132;2022-09-02T04:09:09;2.30;;;2.10;;
677;SDS011;321;48.814;9.132;2022-09-02T04:11:35;2.67;;;2.13;;
677;SDS011;321;48.814;9.132;2022-09-02T04:14:06;10.63;;;2.93;;
677;SDS011;321;48.814;9.132;2022-09-02T04:16:33;3.53;;;2.53;;
677;SDS011;321;48.814;9.132;2022-09-02T04:19:01;2.40;;;2.20;;
677;SDS011;321;48.814;9.132;2022-09-02T04:21:28;2.53;;;2.33;;
677;SDS011;321;48.814;9.132;2022-09-02T04:23:57;2.03;;;1.87;;
677;SDS011;321;48.814;9.132;2022-09-02T04:26:23;3.43;;;2.47;;
677;SDS011;321;48.814;9.132;2022-09-02T04:28:49;2.50;;;2.00;;
677;SDS011;321;48.814;9.132;2022-09-02T04:31:16;2.93;;;2.00;;
677;SDS011;321;48.814;9.132;2022-09-02T04:33:44;3.27;;;2.20;;
677;SDS011;321;48.814;9.132;2022-09-02T04:36:11;3.70;;;2.20;;
677;SDS011;321;48.814;9.132;2022-09-02T04:38:38;2.87;;;2.60;;
677;SDS011;321;48.814;9.132;2022-09-02T04:41:05;2.03;;;1.83;;
677;SDS011;321;48.814;9.132;2022-09-02T04:43:32;4.70;;;2.73;;
677;SDS011;321;48.814;9.132;2022-09-02T04:45:58;2.87;;;2.53;;
677;SDS011;321;48.814;9.132;2022-09-02T04:48:25;4.47;;;3.10;;
677;SDS011;321;48.814;9.132;2022-09-02T04:50:51;2.60;;;2.23;;
677;SDS011;321;48.814;9.132;2022-09-02T04:53:16;2.47;;;1.97;;
677;SDS011;321;48.814;9.132;2022-09-02T04:55:42;1.93;;;1.83;;
677;SDS011;321;48.814;9.132;2022-09-02T04:58:08;2.53;;;2.33;;
677;SDS011;321;48.814;9.132;2022-09-02T05:00:36;3.40;;;2.60;;
677;SDS011;321;48.814;9.132;2022-09-02T05:03:03;2.53;;;2.23;;
677;SDS011;321;48.814;9.132;2022-09-02T05:05:30;2.07;;;1.93;;
677;SDS011;321;48.814;9.132;2022-09-02T05:07:56;4.50;;;2.33;;
677;SDS011;321;48.814;9.132;2022-09-02T05:10:22;3.27;;;2.27;;
677;SDS011;321;48.814;9.132;2022-09-02T05:12:48;2.53;;;2.23;;
677;SDS011;321;48.814;9.132;2022-09-02T05:15:13;2.50;;;2.30;;
677;SDS011;321;48.814;9.132;2022-09-02T05:17:40;4.80;;;2.40;;
677;SDS011;321;48.814;9.132;2022-09-02T05:20:07;4.27;;;2.30;;
677;SDS011;321;48.814;9.132;2022-09-02T05:22:34;4.70;;;2.27;;
677;SDS011;321;48.814;9.132;2022-09-02T05:25:00;2.47;;;2.27;;
677;SDS011;321;48.814;9.132;2022-09-02T05:27:27;3.57;;;2.50;;
677;SDS011;321;48.814;9.132;2022-09-02T05:29:53;2.33;;;2.00;;
677;SDS011;321;48.814;9.132;2022-09-02T05:32:20;2.77;;;2.57;;
677;SDS011;321;48.814;9.132;2022-09-02T05:34:47;4.37;;;3.23;;
677;SDS011;321;48.814;9.132;2022-09-02T05:37:13;2.47;;;2.23;;
677;SDS011;321;48.814;9.132;2022-09-02T05:39:39;3.07;;;2.63;;
677;SDS011;321;48.814;9.132;2022-09-02T05:42:05;2.47;;;2.27;;
677;SDS011;321;48.814;9.132;2022-09-02T05:44:31;1.90;;;1.60;;
677;SDS011;321;48.814;9.132;2022-09-02T05:46:56;2.50;;;2.20;;
677;SDS011;321;48.814;9.132;2022-09-02T05:49:22;2.20;;;1.97;;
677;SDS011;321;48.814;9.132;2022-09-02T05:51:58;2.80;;;2.53;;
677;SDS011;321;48.814;9.132;2022-09-02T05:54:28;2.50;;;1.87;;
677;SDS011;321;48.814;9.132;2022-09-02T05:57:00;3.30;;;2.40;;
677;SDS011;321;48.814;9.132;2022-09-02T05:59:29;2.63;;;2.40;;
677;SDS011;321;48.814;9.132;2022-09-02T06:01:56;3.13;;;2.30;;
677;SDS011;321;48.814;9.132;2022-09-02T06:04:23;3.73;;;2.33;;
677;SDS011;321;48.814;9.132;2022-09-02T06:06:49;2.13;;;1.80;;
677;SDS011;321;48.814;9.132;2022-09-02T06:09:17;3.10;;;2.37;;
677;SDS011;321;48.814;9.132;2022-09-02T06:11:45;3.83;;;3.50;;
677;SDS011;321;48.814;9.132;2022-09-02T06:14:14;2.90;;;2.50;;
677;SDS011;321;48.814;9.132;2022-09-02T06:16:45;2.87;;;2.57;;
677;SDS011;321;48.814;9.132;2022-09-02T06:19:11;3.43;;;3.10;;
677;SDS011;321;48.814;9.132;2022-09-02T06:21:37;3.27;;;2.27;;
677;SDS011;321;48.814;9.132;2022-09-02T06:24:04;2.17;;;1.97;;
677;SDS011;321;48.814;9.132;2022-09-02T06:26:30;2.90;;;2.20;;
677;SDS011;321;48.814;9.132;2022-09-02T06:28:56;2.70;;;2.50;;
677;SDS011;321;48.814;9.132;2022-09-02T06:31:22;3.80;;;3.10;;
677;SDS011;321;48.814;9.132;2022-09-02T06:33:50;2.60;;;2.40;;
677;SDS011;321;48.814;9.132;2022-09-02T06:36:18;3.10;;;2.50;;
677;SDS011;321;48.814;9.132;2022-09-02T06:38:46;4.57;;;2.53;;
677;SDS011;321;48.814;9.132;2022-09-02T06:41:14;1.97;;;1.77;;
677;SDS011;321;48.814;9.132;2022-09-02T06:43:44;3.13;;;2.50;;
677;SDS011;321;48.814;9.132;2022-09-02T06:46:14;2.67;;;2.43;;
677;SDS011;321;48.814;9.132;2022-09-02T06:48:45;1.83;;;1.40;;
677;SDS011;321;48.814;9.132;2022-09-02T06:51:19;3.17;;;2.13;;
677;SDS011;321;48.814;9.132;2022-09-02T06:53:47;1.60;;;1.37;;
677;SDS011;321;48.814;9.132;2022-09-02T06:56:13;3.07;;;1.63;;
677;SDS011;321;48.814;9.132;2022-09-02T06:58:39;4.67;;;2.10;;
677;SDS011;321;48.814;9.132;2022-09-02T07:01:04;3.03;;;1.80;;
677;SDS011;321;48.814;9.132;2022-09-02T07:03:31;1.60;;;1.30;;
677;SDS011;321;48.814;9.132;2022-09-02T07:06:16;1.67;;;1.40;;
677;SDS011;321;48.814;9.132;2022-09-02T07:08:42;2.27;;;1.30;;
677;SDS011;321;48.814;9.132;2022-09-02T07:11:14;1.97;;;1.77;;
677;SDS011;321;48.814;9.132;2022-09-02T07:13:44;2.80;;;2.13;;
677;SDS011;321;48.814;9.132;2022-09-02T07:16:10;1.70;;;1.30;;
677;SDS011;321;48.814;9.132;2022-09-02T07:18:36;1.70;;;1.40;;
677;SDS011;321;48.814;9.132;2022-09-02T07:21:06;1.70;;;1.30;;
677;SDS011;321;48.814;9.132;2022-09-02T07:23:33;2.17;;;1.03;;
677;SDS011;321;48.814;9.132;2022-09-02T07:25:59;2.07;;;1.10;;
677;SDS011;321;48.814;9.132;2022-09-02T07:28:25;2.03;;;1.50;;
677;SDS011;321;48.814;9.132;2022-09-02T07:30:51;1.87;;;1.23;;
677;SDS011;321;48.814;9.132;2022-09-02T07:33:19;2.30;;;1.50;;
677;SDS011;321;48.814;9.132;2022-09-02T07:35:45;1.20;;;0.97;;
677;SDS011;321;48.814;9.132;2022-09-02T07:38:11;1.30;;;0.80;;
677;SDS011;321;48.814;9.132;2022-09-02T07:40:39;1.87;;;1.40;;
677;SDS011;321;48.814;9.132;2022-09-02T07:43:06;1.53;;;1.33;;
677;SDS011;321;48.814;9.132;2022-09-02T07:45:33;1.53;;;1.43;;
677;SDS011;321;48.814;9.132;2022-09-02T07:48:00;3.10;;;1.57;;
677;SDS011;321;48.814;9.132;2022-09-02T07:50:26;3.10;;;1.53;;
677;SDS011;321;48.814;9.132;2022-09-02T07:52:55;1.40;;;1.00;;
677;SDS011;321;48.814;9.132;2022-09-02T07:55:22;2.50;;;1.20;;
677;SDS011;321;48.814;9.132;2022-09-02T07:57:48;3.30;;;1.40;;
677;SDS011;321;48.814;9.132;2022-09-02T08:00:16;2.80;;;1.80;;
677;SDS011;321;48.814;9.132;2022-09-02T08:02:43;2.10;;;1.40;;
677;SDS011;321;48.814;9.132;2022-09-02T08:05:09;1.63;;;0.90;;
677;SDS011;321;48.814;9.132;2022-09-02T08:07:36;1.70;;;1.37;;
677;SDS011;321;48.814;9.132;2022-09-02T08:10:02;1.60;;;1.10;;
677;SDS011;321;48.814;9.132;2022-09-02T08:12:29;1.60;;;1.17;;
677;SDS011;321;48.814;9.132;2022-09-02T08:14:55;1.80;;;1.30;;
677;SDS011;321;48.814;9.132;2022-09-02T08:17:21;1.60;;;1.10;;
677;SDS011;321;48.814;9.132;2022-09-02T08:19:47;1.43;;;0.90;;
677;SDS011;321;48.814;9.132;2022-09-02T08:22:13;1.80;;;1.50;;
677;SDS011;321;48.814;9.132;2022-09-02T08:24:39;1.50;;;1.20;;
677;SDS011;321;48.814;9.132;2022-09-02T08:27:04;1.50;;;1.13;;
677;SDS011;321;48.814;9.132;2022-09-02T08:29:30;1.40;;;1.07;;
677;SDS011;321;48.814;9.132;2022-09-02T08:31:55;1.67;;;0.97;;
677;SDS011;321;48.814;9.132;2022-09-02T08:34:21;1.87;;;1.27;;
677;SDS011;321;48.814;9.132;2022-09-02T08:36:47;1.60;;;1.10;;
677;SDS011;321;48.814;9.132;2022-09-02T08:39:12;1.87;;;1.47;;
677;SDS011;321;48.814;9.132;2022-09-02T08:44:20;3.13;;;0.90;;
677;SDS011;321;48.814;9.132;2022-09-02T08:46:48;1.77;;;0.93;;
677;SDS011;321;48.814;9.132;2022-09-02T08:51:54;2.80;;;0.90;;
677;SDS011;321;48.814;9.132;2022-09-02T08:57:08;1.20;;;0.80;;
677;SDS011;321;48.814;9.132;2022-09-02T08:59:34;1.27;;;0.80;;
677;SDS011;321;48.814;9.132;2022-09-02T09:05:21;1.47;;;0.93;;
677;SDS011;321;48.814;9.132;2022-09-02T09:16:06;1.10;;;0.53;;
677;SDS011;321;48.814;9.132;2022-09-02T09:21:35;2.47;;;1.20;;
677;SDS011;321;48.814;9.132;2022-09-02T09:24:02;1.40;;;0.70;;
677;SDS011;321;48.814;9.132;2022-09-02T09:26:51;2.90;;;1.10;;
677;SDS011;321;48.814;9.132;2022-09-02T09:29:18;1.57;;;0.80;;
677;SDS011;321;48.814;9.132;2022-09-02T09:31:45;2.23;;;1.00;;
677;SDS011;321;48.814;9.132;2022-09-02T09:34:17;1.87;;;0.73;;
677;SDS011;321;48.814;9.132;2022-09-02T09:36:43;1.40;;;0.90;;
677;SDS011;321;48.814;9.132;2022-09-02T09:41:56;2.10;;;1.07;;
677;SDS011;321;48.814;9.132;2022-09-02T09:44:37;2.53;;;1.03;;
677;SDS011;321;48.814;9.132;2022-09-02T09:47:13;1.70;;;0.83;;
677;SDS011;321;48.814;9.132;2022-09-02T09:49:47;1.37;;;0.80;;
677;SDS011;321;48.814;9.132;2022-09-02T09:52:25;1.27;;;0.80;;
677;SDS011;321;48.814;9.132;2022-09-02T09:55:26;1.60;;;0.90;;
677;SDS011;321;48.814;9.132;2022-09-02T09:57:46;1.20;;;0.87;;
677;SDS011;321;48.814;9.132;2022-09-02T10:03:05;1.63;;;0.80;;
677;SDS011;321;48.814;9.132;2022-09-02T10:05:36;1.20;;;0.60;;
677;SDS011;321;48.814;9.132;2022-09-02T10:10:31;1.83;;;0.70;;
677;SDS011;321;48.814;9.132;2022-09-02T10:13:15;2.37;;;0.93;;
677;SDS011;321;48.814;9.132;2022-09-02T10:24:47;1.10;;;0.50;;
677;SDS011;321;48.814;9.132;2022-09-02T10:27:19;1.10;;;0.50;;
677;SDS011;321;48.814;9.132;2022-09-02T10:32:52;1.20;;;0.70;;
677;SDS011;321;48.814;9.132;2022-09-02T10:40:52;1.63;;;0.90;;
677;SDS011;321;48.814;9.132;2022-09-02T10:43:28;1.20;;;0.60;;
677;SDS011;321;48.814;9.132;2022-09-02T10:45:58;1.27;;;0.63;;
677;SDS011;321;48.814;9.132;2022-09-02T10:54:17;1.57;;;0.90;;
677;SDS011;321;48.814;9.132;2022-09-02T10:56:49;1.23;;;0.70;;
677;SDS011;321;48.814;9.132;2022-09-02T10:59:23;1.40;;;1.10;;
677;SDS011;321;48.814;9.132;2022-09-02T11:02:01;1.20;;;0.63;;
677;SDS011;321;48.814;9.132;2022-09-02T11:04:39;1.23;;;0.70;;
677;SDS011;321;48.814;9.132;2022-09-02T11:07:07;1.93;;;1.00;;
677;SDS011;321;48.814;9.132;2022-09-02T11:09:39;1.40;;;0.90;;
677;SDS011;321;48.814;9.132;2022-09-02T11:12:16;1.20;;;0.70;;
677;SDS011;321;48.814;9.132;2022-09-02T11:17:52;1.50;;;0.83;;
677;SDS011;321;48.814;9.132;2022-09-02T11:23:05;1.33;;;0.70;;
677;SDS011;321;48.814;9.132;2022-09-02T11:26:25;1.00;;;0.50;;
677;SDS011;321;48.814;9.132;2022-09-02T11:28:39;1.10;;;0.60;;
677;SDS011;321;48.814;9.132;2022-09-02T11:31:20;1.53;;;0.60;;
677;SDS011;321;48.814;9.132;2022-09-02T11:37:07;2.80;;;1.10;;
677;SDS011;321;48.814;9.132;2022-09-02T11:39:43;1.63;;;1.20;;
677;SDS011;321;48.814;9.132;2022-09-02T11:42:21;1.10;;;0.63;;
677;SDS011;321;48.814;9.132;2022-09-02T11:51:28;1.37;;;0.70;;
677;SDS011;321;48.814;9.132;2022-09-02T11:53:56;1.47;;;0.80;;
677;SDS011;321;48.814;9.132;2022-09-02T11:56:26;1.53;;;0.83;;
677;SDS011;321;48.814;9.132;2022-09-02T11:58:58;1.73;;;1.10;;
677;SDS011;321;48.814;9.132;2022-09-02T12:01:25;1.23;;;0.70;;
677;SDS011;321;48.814;9.132;2022-09-02T12:06:37;1.40;;;1.30;;
677;SDS011;321;48.814;9.132;2022-09-02T12:17:39;1.50;;;0.87;;
677;SDS011;321;48.814;9.132;2022-09-02T12:20:11;2.07;;;0.90;;
677;SDS011;321;48.814;9.132;2022-09-02T12:23:03;1.33;;;1.03;;
677;SDS011;321;48.814;9.132;2022-09-02T12:25:33;1.30;;;0.60;;
677;SDS011;321;48.814;9.132;2022-09-02T12:28:16;1.30;;;0.60;;
677;SDS011;321;48.814;9.132;2022-09-02T12:33:43;1.10;;;0.70;;
677;SDS011;321;48.814;9.132;2022-09-02T12:39:46;1.40;;;1.00;;
677;SDS011;321;48.814;9.132;2022-09-02T12:44:27;1.20;;;0.80;;
677;SDS011;321;48.814;9.132;2022-09-02T12:46:58;1.77;;;0.97;;
677;SDS011;321;48.814;9.132;2022-09-02T12:54:39;1.17;;;0.63;;
677;SDS011;321;48.814;9.132;2022-09-02T12:57:08;1.43;;;0.60;;
677;SDS011;321;48.814;9.132;2022-09-02T12:59:38;2.77;;;1.50;;
677;SDS011;321;48.814;9.132;2022-09-02T13:08:05;1.10;;;0.60;;
677;SDS011;321;48.814;9.132;2022-09-02T13:19:19;1.30;;;0.70;;
677;SDS011;321;48.814;9.132;2022-09-02T13:27:52;1.20;;;0.70;;
677;SDS011;321;48.814;9.132;2022-09-02T13:33:21;1.30;;;0.70;;
677;SDS011;321;48.814;9.132;2022-09-02T13:35:51;1.30;;;0.80;;
677;SDS011;321;48.814;9.132;2022-09-02T13:38:21;1.07;;;0.60;;
677;SDS011;321;48.814;9.132;2022-09-02T13:40:48;1.10;;;0.60;;
677;SDS011;321;48.814;9.132;2022-09-02T13:45:42;1.20;;;0.80;;
677;SDS011;321;48.814;9.132;2022-09-02T13:48:18;1.20;;;0.70;;
677;SDS011;321;48.814;9.132;2022-09-02T13:50:47;1.30;;;0.90;;
677;SDS011;321;48.814;9.132;2022-09-02T13:56:12;1.67;;;0.80;;
677;SDS011;321;48.814;9.132;2022-09-02T13:58:40;1.70;;;1.03;;
677;SDS011;321;48.814;9.132;2022-09-02T14:01:16;1.20;;;0.70;;
677;SDS011;321;48.814;9.132;2022-09-02T14:03:47;1.40;;;0.70;;
677;SDS011;321;48.814;9.132;2022-09-02T14:06:16;1.50;;;0.80;;
677;SDS011;321;48.814;9.132;2022-09-02T14:08:44;1.77;;;0.90;;
677;SDS011;321;48.814;9.132;2022-09-02T14:11:14;1.40;;;0.70;;
677;SDS011;321;48.814;9.132;2022-09-02T14:13:42;2.47;;;0.73;;
677;SDS011;321;48.814;9.132;2022-09-02T14:19:22;1.13;;;0.70;;
677;SDS011;321;48.814;9.132;2022-09-02T14:21:53;1.20;;;0.80;;
677;SDS011;321;48.814;9.132;2022-09-02T14:24:21;1.37;;;0.73;;
677;SDS011;321;48.814;9.132;2022-09-02T14:26:55;1.20;;;0.83;;
677;SDS011;321;48.814;9.132;2022-09-02T14:29:22;1.70;;;0.97;;
677;SDS011;321;48.814;9.132;2022-09-02T14:34:43;1.30;;;0.90;;
677;SDS011;321;48.814;9.132;2022-09-02T14:37:14;2.10;;;1.10;;
677;SDS011;321;48.814;9.132;2022-09-02T14:39:50;3.97;;;1.00;;
677;SDS011;321;48.814;9.132;2022-09-02T14:42:48;1.40;;;0.90;;
677;SDS011;321;48.814;9.132;2022-09-02T14:47:52;2.60;;;0.80;;
677;SDS011;321;48.814;9.132;2022-09-02T14:50:18;1.90;;;1.07;;
677;SDS011;321;48.814;9.132;2022-09-02T14:52:49;1.80;;;0.93;;
677;SDS011;321;48.814;9.132;2022-09-02T14:58:08;1.80;;;1.27;;
677;SDS011;321;48.814;9.132;2022-09-02T15:00:34;1.40;;;0.73;;
677;SDS011;321;48.814;9.132;2022-09-02T15:03:03;1.20;;;0.60;;
677;SDS011;321;48.814;9.132;2022-09-02T15:05:30;1.20;;;0.60;;
677;SDS011;321;48.814;9.132;2022-09-02T15:07:56;2.23;;;1.23;;
677;SDS011;321;48.814;9.132;2022-09-02T15:10:22;1.50;;;1.00;;
677;SDS011;321;48.814;9.132;2022-09-02T15:12:48;1.70;;;0.83;;
677;SDS011;321;48.814;9.132;2022-09-02T15:15:16;1.10;;;0.80;;
677;SDS011;321;48.814;9.132;2022-09-02T15:17:42;1.67;;;0.70;;
677;SDS011;321;48.814;9.132;2022-09-02T15:20:07;1.30;;;0.77;;
677;SDS011;321;48.814;9.132;2022-09-02T15:22:34;1.20;;;0.80;;
677;SDS011;321;48.814;9.132;2022-09-02T15:25:00;1.30;;;0.90;;
677;SDS011;321;48.814;9.132;2022-09-02T15:27:28;1.50;;;0.80;;
677;SDS011;321;48.814;9.132;2022-09-02T15:29:53;1.30;;;1.10;;
677;SDS011;321;48.814;9.132;2022-09-02T15:32:19;1.10;;;0.80;;
677;SDS011;321;48.814;9.132;2022-09-02T15:34:45;1.57;;;1.27;;
677;SDS011;321;48.814;9.132;2022-09-02T15:37:11;1.30;;;0.80;;
677;SDS011;321;48.814;9.132;2022-09-02T15:39:36;1.73;;;0.97;;
677;SDS011;321;48.814;9.132;2022-09-02T15:42:02;1.60;;;0.80;;
677;SDS011;321;48.814;9.132;2022-09-02T15:44:28;1.60;;;0.80;;
677;SDS011;321;48.814;9.132;2022-09-02T15:46:55;1.20;;;0.80;;
677;SDS011;321;48.814;9.132;2022-09-02T15:49:21;1.30;;;1.00;;
677;SDS011;321;48.814;9.132;2022-09-02T15:51:48;1.50;;;1.00;;
677;SDS011;321;48.814;9.132;2022-09-02T15:54:15;1.50;;;0.80;;
677;SDS011;321;48.814;9.132;2022-09-02T15:56:44;1.43;;;0.83;;
677;SDS011;321;48.814;9.132;2022-09-02T15:59:12;5.50;;;1.10;;
677;SDS011;321;48.814;9.132;2022-09-02T16:01:40;1.67;;;0.80;;
677;SDS011;321;48.814;9.132;2022-09-02T16:04:08;2.33;;;0.90;;
677;SDS011;321;48.814;9.132;2022-09-02T16:06:36;1.67;;;1.10;;
677;SDS011;321;48.814;9.132;2022-09-02T16:09:03;1.10;;;0.60;;
677;SDS011;321;48.814;9.132;2022-09-02T16:11:30;8.93;;;1.30;;
677;SDS011;321;48.814;9.132;2022-09-02T16:13:56;1.60;;;0.67;;
677;SDS011;321;48.814;9.132;2022-09-02T16:16:21;1.40;;;1.00;;
677;SDS011;321;48.814;9.132;2022-09-02T16:18:51;1.20;;;0.97;;
677;SDS011;321;48.814;9.132;2022-09-02T16:21:17;1.53;;;0.80;;
677;SDS011;321;48.814;9.132;2022-09-02T16:23:44;4.03;;;1.10;;
677;SDS011;321;48.814;9.132;2022-09-02T16:26:29;1.93;;;0.70;;
677;SDS011;321;48.814;9.132;2022-09-02T16:28:57;1.57;;;0.87;;
677;SDS011;321;48.814;9.132;2022-09-02T16:31:30;1.20;;;0.80;;
677;SDS011;321;48.814;9.132;2022-09-02T16:34:02;1.53;;;1.00;;
677;SDS011;321;48.814;9.132;2022-09-02T16:36:33;4.17;;;0.87;;
677;SDS011;321;48.814;9.132;2022-09-02T16:39:03;1.70;;;1.13;;
677;SDS011;321;48.814;9.132;2022-09-02T16:44:00;1.70;;;1.30;;
677;SDS011;321;48.814;9.132;2022-09-02T16:46:28;1.63;;;0.83;;
677;SDS011;321;48.814;9.132;2022-09-02T16:48:54;1.67;;;0.90;;
677;SDS011;321;48.814;9.132;2022-09-02T16:51:20;1.20;;;0.70;;
677;SDS011;321;48.814;9.132;2022-09-02T16:53:51;1.30;;;0.80;;
677;SDS011;321;48.814;9.132;2022-09-02T16:56:21;1.37;;;1.10;;
677;SDS011;321;48.814;9.132;2022-09-02T16:58:47;2.33;;;1.13;;
677;SDS011;321;48.814;9.132;2022-09-02T17:01:14;1.63;;;1.00;;
677;SDS011;321;48.814;9.132;2022-09-02T17:03:40;1.77;;;1.20;;
677;SDS011;321;48.814;9.132;2022-09-02T17:06:06;1.57;;;0.93;;
677;SDS011;321;48.814;9.132;2022-09-02T17:08:32;1.30;;;0.80;;
677;SDS011;321;48.814;9.132;2022-09-02T17:13:48;1.20;;;0.80;;
677;SDS011;321;48.814;9.132;2022-09-02T17:16:22;1.50;;;1.30;;
677;SDS011;321;48.814;9.132;2022-09-02T17:18:50;1.20;;;0.60;;
677;SDS011;321;48.814;9.132;2022-09-02T17:21:29;2.10;;;1.30;;
677;SDS011;321;48.814;9.132;2022-09-02T17:24:03;1.27;;;0.90;;
677;SDS011;321;48.814;9.132;2022-09-02T17:26:31;4.10;;;1.03;;
677;SDS011;321;48.814;9.132;2022-09-02T17:28:58;1.90;;;1.40;;
677;SDS011;321;48.814;9.132;2022-09-02T17:31:25;1.23;;;0.70;;
677;SDS011;321;48.814;9.132;2022-09-02T17:33:54;1.40;;;0.80;;
677;SDS011;321;48.814;9.132;2022-09-02T17:36:21;1.30;;;0.87;;
677;SDS011;321;48.814;9.132;2022-09-02T17:38:47;1.67;;;0.87;;
677;SDS011;321;48.814;9.132;2022-09-02T17:41:13;1.30;;;0.90;;
677;SDS011;321;48.814;9.132;2022-09-02T17:43:58;1.80;;;0.80;;
677;SDS011;321;48.814;9.132;2022-09-02T17:46:25;2.70;;;1.53;;
677;SDS011;321;48.814;9.132;2022-09-02T17:48:50;1.40;;;0.83;;
677;SDS011;321;48.814;9.132;2022-09-02T17:51:16;1.97;;;1.10;;
677;SDS011;321;48.814;9.132;2022-09-02T17:53:43;1.77;;;0.80;;
677;SDS011;321;48.814;9.132;2022-09-02T17:56:31;2.27;;;1.03;;
677;SDS011;321;48.814;9.132;2022-09-02T18:09:56;1.37;;;0.90;;
677;SDS011;321;48.814;9.132;2022-09-02T18:12:22;1.10;;;0.60;;
677;SDS011;321;48.814;9.132;2022-09-02T18:14:50;1.40;;;0.77;;
677;SDS011;321;48.814;9.132;2022-09-02T18:20:22;1.60;;;1.00;;
677;SDS011;321;48.814;9.132;2022-09-02T18:36:34;1.97;;;0.90;;
677;SDS011;321;48.814;9.132;2022-09-02T18:39:36;1.20;;;0.90;;
677;SDS011;321;48.814;9.132;2022-09-02T18:42:35;4.80;;;0.87;;